sensor_id;sensor_type;location;lat;lon;timestamp;temperature;humidity
29173;DHT22;16223;47.966;-1.616;2022-07-23T00:00:55;14.1;88
29173;DHT22;16223;47.966;-1.616;2022-07-23T00:01:55;14.1;88
29173;DHT22;16223;47.966;-1.616;2022-07-23T00:02:55;14.1;88
29173;DHT22;16223;47.966;-1.616;2022-07-23T00:03:55;14.1;88
29173;DHT22;16223;47.966;-1.616;2022-07-23T00:04:55;14.1;88
29173;DHT22;16223;47.966;-1.616;2022-07-23T00:05:55;14.1;88
29173;DHT22;16223;47.966;-1.616;2022-07-23T00:06:55;14.1;88
29173;DHT22;16223;47.966;-1.616;2022-07-23T00:07:55;14.1;88
29173;DHT22;16223;47.966;-1.616;2022-07-23T00:08:55;14.1;88
29173;DHT22;16223;47.966;-1.616;2022-07-23T00:09:55;14.1;88
29173;DHT22;16223;47.966;-1.616;2022-07-23T00:10:55;14.1;88
29173;DHT22;16223;47.966;-1.616;2022-07-23T00:11:55;14.1;88
29173;DHT22;16223;47.966;-1.616;2022-07-23T00:12:55;14.1;88
29173;DHT22;16223;47.966;-1.616;2022-07-23T00:13:55;14.1;88
29173;DHT22;16223;47.966;-1.616;2022-07-23T00:14:58;14.1;88
29173;DHT22;16223;47.966;-1.616;2022-07-23T00:15:55;14.1;88
29173;DHT22;16223;47.966;-1.616;2022-07-23T00:16:55;14.1;88
29173;DHT22;16223;47.966;-1.616;2022-07-23T00:17:55;14.1;88
29173;DHT22;16223;47.966;-1.616;2022-07-23T00:18:55;14.1;88
29173;DHT22;16223;47.966;-1.616;2022-07-23T00:19:55;14.1;88
29173;DHT22;16223;47.966;-1.616;2022-07-23T00:20:55;14.1;88
29173;DHT22;16223;47.966;-1.616;2022-07-23T00:21:56;14.1;88
29173;DHT22;16223;47.966;-1.616;2022-07-23T00:22:56;14.1;88
29173;DHT22;16223;47.966;-1.616;2022-07-23T00:23:55;14.1;88
29173;DHT22;16223;47.966;-1.616;2022-07-23T00:24:55;14.1;88
29173;DHT22;16223;47.966;-1.616;2022-07-23T00:25:55;14.1;88
29173;DHT22;16223;47.966;-1.616;2022-07-23T00:26:55;14.1;88
29173;DHT22;16223;47.966;-1.616;2022-07-23T00:27:55;14.1;88
29173;DHT22;16223;47.966;-1.616;2022-07-23T00:28:55;14.1;88
29173;DHT22;16223;47.966;-1.616;2022-07-23T00:29:56;14.1;88
29173;DHT22;16223;47.966;-1.616;2022-07-23T00:30:55;13.9;90
29173;DHT22;16223;47.966;-1.616;2022-07-23T00:31:55;13.9;90
29173;DHT22;16223;47.966;-1.616;2022-07-23T00:32:57;13.9;90
29173;DHT22;16223;47.966;-1.616;2022-07-23T00:33:56;13.9;90
29173;DHT22;16223;47.966;-1.616;2022-07-23T00:34:55;13.9;90
29173;DHT22;16223;47.966;-1.616;2022-07-23T00:35:55;13.9;90
29173;DHT22;16223;47.966;-1.616;2022-07-23T00:36:56;13.9;90
29173;DHT22;16223;47.966;-1.616;2022-07-23T00:37:56;13.9;90
29173;DHT22;16223;47.966;-1.616;2022-07-23T00:38:55;13.9;90
29173;DHT22;16223;47.966;-1.616;2022-07-23T00:39:55;13.9;90
29173;DHT22;16223;47.966;-1.616;2022-07-23T00:40:56;13.9;90
29173;DHT22;16223;47.966;-1.616;2022-07-23T00:41:55;13.9;90
29173;DHT22;16223;47.966;-1.616;2022-07-23T00:42:55;13.9;90
29173;DHT22;16223;47.966;-1.616;2022-07-23T00:43:55;13.9;90
29173;DHT22;16223;47.966;-1.616;2022-07-23T00:44:55;13.9;90
29173;DHT22;16223;47.966;-1.616;2022-07-23T00:45:55;13.9;90
29173;DHT22;16223;47.966;-1.616;2022-07-23T00:46:57;13.9;90
29173;DHT22;16223;47.966;-1.616;2022-07-23T00:47:55;13.9;90
29173;DHT22;16223;47.966;-1.616;2022-07-23T00:48:56;13.9;90
29173;DHT22;16223;47.966;-1.616;2022-07-23T00:49:55;13.9;90
29173;DHT22;16223;47.966;-1.616;2022-07-23T00:50:55;13.9;90
29173;DHT22;16223;47.966;-1.616;2022-07-23T00:51:57;13.9;90
29173;DHT22;16223;47.966;-1.616;2022-07-23T00:52:56;13.9;90
29173;DHT22;16223;47.966;-1.616;2022-07-23T00:53:55;13.9;90
29173;DHT22;16223;47.966;-1.616;2022-07-23T00:54:55;13.9;90
29173;DHT22;16223;47.966;-1.616;2022-07-23T00:55:56;13.9;90
29173;DHT22;16223;47.966;-1.616;2022-07-23T00:56:56;13.9;90
29173;DHT22;16223;47.966;-1.616;2022-07-23T00:57:55;13.9;90
29173;DHT22;16223;47.966;-1.616;2022-07-23T00:58:55;13.9;90
29173;DHT22;16223;47.966;-1.616;2022-07-23T00:59:57;13.9;90
29173;DHT22;16223;47.966;-1.616;2022-07-23T01:00:55;13.9;90
29173;DHT22;16223;47.966;-1.616;2022-07-23T01:01:55;13.9;90
29173;DHT22;16223;47.966;-1.616;2022-07-23T01:02:55;13.9;90
29173;DHT22;16223;47.966;-1.616;2022-07-23T01:03:55;13.9;90
29173;DHT22;16223;47.966;-1.616;2022-07-23T01:04:55;13.9;90
29173;DHT22;16223;47.966;-1.616;2022-07-23T01:05:55;13.9;90
29173;DHT22;16223;47.966;-1.616;2022-07-23T01:06:55;13.9;90
29173;DHT22;16223;47.966;-1.616;2022-07-23T01:07:55;13.9;90
29173;DHT22;16223;47.966;-1.616;2022-07-23T01:08:56;13.9;90
29173;DHT22;16223;47.966;-1.616;2022-07-23T01:09:56;13.9;90
29173;DHT22;16223;47.966;-1.616;2022-07-23T01:10:59;13.9;90
29173;DHT22;16223;47.966;-1.616;2022-07-23T01:11:57;13.9;90
29173;DHT22;16223;47.966;-1.616;2022-07-23T01:12:55;13.9;90
29173;DHT22;16223;47.966;-1.616;2022-07-23T01:13:55;13.9;90
29173;DHT22;16223;47.966;-1.616;2022-07-23T01:15:00;13.9;90
29173;DHT22;16223;47.966;-1.616;2022-07-23T01:15:55;13.9;90
29173;DHT22;16223;47.966;-1.616;2022-07-23T01:16:55;13.9;90
29173;DHT22;16223;47.966;-1.616;2022-07-23T01:17:55;13.9;90
29173;DHT22;16223;47.966;-1.616;2022-07-23T01:18:55;13.6;92
29173;DHT22;16223;47.966;-1.616;2022-07-23T01:19:55;13.6;92
29173;DHT22;16223;47.966;-1.616;2022-07-23T01:20:55;13.6;92
29173;DHT22;16223;47.966;-1.616;2022-07-23T01:21:57;13.6;92
29173;DHT22;16223;47.966;-1.616;2022-07-23T01:22:55;13.6;92
29173;DHT22;16223;47.966;-1.616;2022-07-23T01:23:55;13.6;92
29173;DHT22;16223;47.966;-1.616;2022-07-23T01:24:55;13.6;92
29173;DHT22;16223;47.966;-1.616;2022-07-23T01:25:55;13.6;92
29173;DHT22;16223;47.966;-1.616;2022-07-23T01:26:54;13.6;92
29173;DHT22;16223;47.966;-1.616;2022-07-23T01:27:55;13.6;92
29173;DHT22;16223;47.966;-1.616;2022-07-23T01:28:54;13.6;92
29173;DHT22;16223;47.966;-1.616;2022-07-23T01:29:57;13.6;92
29173;DHT22;16223;47.966;-1.616;2022-07-23T01:30:56;13.6;92
29173;DHT22;16223;47.966;-1.616;2022-07-23T01:31:55;13.6;92
29173;DHT22;16223;47.966;-1.616;2022-07-23T01:32:55;13.6;92
29173;DHT22;16223;47.966;-1.616;2022-07-23T01:33:55;13.6;92
29173;DHT22;16223;47.966;-1.616;2022-07-23T01:34:55;13.6;92
29173;DHT22;16223;47.966;-1.616;2022-07-23T01:35:55;13.6;92
29173;DHT22;16223;47.966;-1.616;2022-07-23T01:36:55;13.6;92
29173;DHT22;16223;47.966;-1.616;2022-07-23T01:37:55;13.6;92
29173;DHT22;16223;47.966;-1.616;2022-07-23T01:38:55;13.6;92
29173;DHT22;16223;47.966;-1.616;2022-07-23T01:39:54;13.6;92
29173;DHT22;16223;47.966;-1.616;2022-07-23T01:40:55;13.6;92
29173;DHT22;16223;47.966;-1.616;2022-07-23T01:41:55;13.6;92
29173;DHT22;16223;47.966;-1.616;2022-07-23T01:42:55;13.6;92
29173;DHT22;16223;47.966;-1.616;2022-07-23T01:43:55;13.6;92
29173;DHT22;16223;47.966;-1.616;2022-07-23T01:44:55;13.6;92
29173;DHT22;16223;47.966;-1.616;2022-07-23T01:45:55;13.6;92
29173;DHT22;16223;47.966;-1.616;2022-07-23T01:46:56;13.6;92
29173;DHT22;16223;47.966;-1.616;2022-07-23T01:47:55;13.6;92
29173;DHT22;16223;47.966;-1.616;2022-07-23T01:48:55;13.6;92
29173;DHT22;16223;47.966;-1.616;2022-07-23T01:49:55;13.6;92
29173;DHT22;16223;47.966;-1.616;2022-07-23T01:50:55;13.6;92
29173;DHT22;16223;47.966;-1.616;2022-07-23T01:51:55;13.6;92
29173;DHT22;16223;47.966;-1.616;2022-07-23T01:52:54;13.6;92
29173;DHT22;16223;47.966;-1.616;2022-07-23T01:53:55;13.6;92
29173;DHT22;16223;47.966;-1.616;2022-07-23T01:54:55;13.6;92
29173;DHT22;16223;47.966;-1.616;2022-07-23T01:55:55;13.6;92
29173;DHT22;16223;47.966;-1.616;2022-07-23T01:56:55;13.6;92
29173;DHT22;16223;47.966;-1.616;2022-07-23T01:57:55;13.6;92
29173;DHT22;16223;47.966;-1.616;2022-07-23T01:58:55;13.6;92
29173;DHT22;16223;47.966;-1.616;2022-07-23T01:59:55;13.6;92
29173;DHT22;16223;47.966;-1.616;2022-07-23T02:00:55;13.6;92
29173;DHT22;16223;47.966;-1.616;2022-07-23T02:01:56;13.6;92
29173;DHT22;16223;47.966;-1.616;2022-07-23T02:02:55;13.6;92
29173;DHT22;16223;47.966;-1.616;2022-07-23T02:03:55;13.6;92
29173;DHT22;16223;47.966;-1.616;2022-07-23T02:04:55;13.6;92
29173;DHT22;16223;47.966;-1.616;2022-07-23T02:05:55;13.6;92
29173;DHT22;16223;47.966;-1.616;2022-07-23T02:06:55;13.6;92
29173;DHT22;16223;47.966;-1.616;2022-07-23T02:07:55;13.6;92
29173;DHT22;16223;47.966;-1.616;2022-07-23T02:08:55;13.6;92
29173;DHT22;16223;47.966;-1.616;2022-07-23T02:09:55;13.6;92
29173;DHT22;16223;47.966;-1.616;2022-07-23T02:10:55;13.6;92
29173;DHT22;16223;47.966;-1.616;2022-07-23T02:11:55;13.6;92
29173;DHT22;16223;47.966;-1.616;2022-07-23T02:12:55;13.6;92
29173;DHT22;16223;47.966;-1.616;2022-07-23T02:13:55;13.6;92
29173;DHT22;16223;47.966;-1.616;2022-07-23T02:14:55;13.6;92
29173;DHT22;16223;47.966;-1.616;2022-07-23T02:15:55;13.6;92
29173;DHT22;16223;47.966;-1.616;2022-07-23T02:16:55;13.6;92
29173;DHT22;16223;47.966;-1.616;2022-07-23T02:17:55;13.6;92
29173;DHT22;16223;47.966;-1.616;2022-07-23T02:18:55;13.6;92
29173;DHT22;16223;47.966;-1.616;2022-07-23T02:19:55;13.6;92
29173;DHT22;16223;47.966;-1.616;2022-07-23T02:20:55;13.6;92
29173;DHT22;16223;47.966;-1.616;2022-07-23T02:21:55;13.6;92
29173;DHT22;16223;47.966;-1.616;2022-07-23T02:22:55;13.6;92
29173;DHT22;16223;47.966;-1.616;2022-07-23T02:23:55;13.6;92
29173;DHT22;16223;47.966;-1.616;2022-07-23T02:24:55;13.6;92
29173;DHT22;16223;47.966;-1.616;2022-07-23T02:25:54;13.6;92
29173;DHT22;16223;47.966;-1.616;2022-07-23T02:26:55;13.6;92
29173;DHT22;16223;47.966;-1.616;2022-07-23T02:27:55;13.2;94
29173;DHT22;16223;47.966;-1.616;2022-07-23T02:28:55;13.2;94
29173;DHT22;16223;47.966;-1.616;2022-07-23T02:29:55;13.2;94
29173;DHT22;16223;47.966;-1.616;2022-07-23T02:30:55;13.2;94
29173;DHT22;16223;47.966;-1.616;2022-07-23T02:31:55;13.2;94
29173;DHT22;16223;47.966;-1.616;2022-07-23T02:32:54;13.2;94
29173;DHT22;16223;47.966;-1.616;2022-07-23T02:33:55;13.2;94
29173;DHT22;16223;47.966;-1.616;2022-07-23T02:34:55;13.2;94
29173;DHT22;16223;47.966;-1.616;2022-07-23T02:35:55;13.2;94
29173;DHT22;16223;47.966;-1.616;2022-07-23T02:37:05;13.2;94
29173;DHT22;16223;47.966;-1.616;2022-07-23T02:37:55;13.2;94
29173;DHT22;16223;47.966;-1.616;2022-07-23T02:38:55;13.2;94
29173;DHT22;16223;47.966;-1.616;2022-07-23T02:39:55;13.2;94
29173;DHT22;16223;47.966;-1.616;2022-07-23T02:40:55;13.2;94
29173;DHT22;16223;47.966;-1.616;2022-07-23T02:41:55;13.2;94
29173;DHT22;16223;47.966;-1.616;2022-07-23T02:42:55;13.2;94
29173;DHT22;16223;47.966;-1.616;2022-07-23T02:43:55;13.2;94
29173;DHT22;16223;47.966;-1.616;2022-07-23T02:44:56;13.2;94
29173;DHT22;16223;47.966;-1.616;2022-07-23T02:45:55;13.2;94
29173;DHT22;16223;47.966;-1.616;2022-07-23T02:46:55;13.2;94
29173;DHT22;16223;47.966;-1.616;2022-07-23T02:47:55;13.2;94
29173;DHT22;16223;47.966;-1.616;2022-07-23T02:48:55;13.2;94
29173;DHT22;16223;47.966;-1.616;2022-07-23T02:49:55;13.2;94
29173;DHT22;16223;47.966;-1.616;2022-07-23T02:50:55;13.2;94
29173;DHT22;16223;47.966;-1.616;2022-07-23T02:51:55;13.2;94
29173;DHT22;16223;47.966;-1.616;2022-07-23T02:52:55;13.2;94
29173;DHT22;16223;47.966;-1.616;2022-07-23T02:53:55;13.2;94
29173;DHT22;16223;47.966;-1.616;2022-07-23T02:54:55;13.2;94
29173;DHT22;16223;47.966;-1.616;2022-07-23T02:55:55;13.2;94
29173;DHT22;16223;47.966;-1.616;2022-07-23T02:56:56;13.2;94
29173;DHT22;16223;47.966;-1.616;2022-07-23T02:57:56;13.2;94
29173;DHT22;16223;47.966;-1.616;2022-07-23T02:58:55;13.2;94
29173;DHT22;16223;47.966;-1.616;2022-07-23T02:59:55;13.2;94
29173;DHT22;16223;47.966;-1.616;2022-07-23T03:00:55;13.2;94
29173;DHT22;16223;47.966;-1.616;2022-07-23T03:01:55;13.2;94
29173;DHT22;16223;47.966;-1.616;2022-07-23T03:02:55;13.2;94
29173;DHT22;16223;47.966;-1.616;2022-07-23T03:03:55;13.2;94
29173;DHT22;16223;47.966;-1.616;2022-07-23T03:04:55;13.2;94
29173;DHT22;16223;47.966;-1.616;2022-07-23T03:05:56;13.2;94
29173;DHT22;16223;47.966;-1.616;2022-07-23T03:06:55;13.2;94
29173;DHT22;16223;47.966;-1.616;2022-07-23T03:07:55;13.2;94
29173;DHT22;16223;47.966;-1.616;2022-07-23T03:08:55;13.2;94
29173;DHT22;16223;47.966;-1.616;2022-07-23T03:09:55;13.2;94
29173;DHT22;16223;47.966;-1.616;2022-07-23T03:10:55;13.2;94
29173;DHT22;16223;47.966;-1.616;2022-07-23T03:11:55;13.2;94
29173;DHT22;16223;47.966;-1.616;2022-07-23T03:12:55;13.2;94
29173;DHT22;16223;47.966;-1.616;2022-07-23T03:13:55;13.2;94
29173;DHT22;16223;47.966;-1.616;2022-07-23T03:14:55;13.2;94
29173;DHT22;16223;47.966;-1.616;2022-07-23T03:15:55;13.2;94
29173;DHT22;16223;47.966;-1.616;2022-07-23T03:16:55;13.2;94
29173;DHT22;16223;47.966;-1.616;2022-07-23T03:17:55;13.2;94
29173;DHT22;16223;47.966;-1.616;2022-07-23T03:18:55;13.2;94
29173;DHT22;16223;47.966;-1.616;2022-07-23T03:19:55;13.2;94
29173;DHT22;16223;47.966;-1.616;2022-07-23T03:21:05;13.2;94
29173;DHT22;16223;47.966;-1.616;2022-07-23T03:21:55;13.2;94
29173;DHT22;16223;47.966;-1.616;2022-07-23T03:22:55;13.2;94
29173;DHT22;16223;47.966;-1.616;2022-07-23T03:23:55;13.3;95
29173;DHT22;16223;47.966;-1.616;2022-07-23T03:24:55;13.3;95
29173;DHT22;16223;47.966;-1.616;2022-07-23T03:25:55;13.3;95
29173;DHT22;16223;47.966;-1.616;2022-07-23T03:26:55;13.3;95
29173;DHT22;16223;47.966;-1.616;2022-07-23T03:27:55;13.3;95
29173;DHT22;16223;47.966;-1.616;2022-07-23T03:28:56;13.3;95
29173;DHT22;16223;47.966;-1.616;2022-07-23T03:29:56;13.3;95
29173;DHT22;16223;47.966;-1.616;2022-07-23T03:30:55;13.1;95
29173;DHT22;16223;47.966;-1.616;2022-07-23T03:31:55;13.1;95
29173;DHT22;16223;47.966;-1.616;2022-07-23T03:32:55;13.1;95
29173;DHT22;16223;47.966;-1.616;2022-07-23T03:33:55;13.1;95
29173;DHT22;16223;47.966;-1.616;2022-07-23T03:34:55;13.1;95
29173;DHT22;16223;47.966;-1.616;2022-07-23T03:35:56;13.1;95
29173;DHT22;16223;47.966;-1.616;2022-07-23T03:36:56;13.1;95
29173;DHT22;16223;47.966;-1.616;2022-07-23T03:37:56;13.1;95
29173;DHT22;16223;47.966;-1.616;2022-07-23T03:38:55;13.1;95
29173;DHT22;16223;47.966;-1.616;2022-07-23T03:39:55;13.1;95
29173;DHT22;16223;47.966;-1.616;2022-07-23T03:40:55;13.1;95
29173;DHT22;16223;47.966;-1.616;2022-07-23T03:41:55;13.1;95
29173;DHT22;16223;47.966;-1.616;2022-07-23T03:42:55;13.1;95
29173;DHT22;16223;47.966;-1.616;2022-07-23T03:43:55;13.1;95
29173;DHT22;16223;47.966;-1.616;2022-07-23T03:44:55;13.1;95
29173;DHT22;16223;47.966;-1.616;2022-07-23T03:45:55;13.1;95
29173;DHT22;16223;47.966;-1.616;2022-07-23T03:46:55;13.1;95
29173;DHT22;16223;47.966;-1.616;2022-07-23T03:47:55;13.1;95
29173;DHT22;16223;47.966;-1.616;2022-07-23T03:48:55;13.1;95
29173;DHT22;16223;47.966;-1.616;2022-07-23T03:49:55;13.1;95
29173;DHT22;16223;47.966;-1.616;2022-07-23T03:50:55;13.1;95
29173;DHT22;16223;47.966;-1.616;2022-07-23T03:51:55;13.1;95
29173;DHT22;16223;47.966;-1.616;2022-07-23T03:52:55;13.1;95
29173;DHT22;16223;47.966;-1.616;2022-07-23T03:53:55;13.1;95
29173;DHT22;16223;47.966;-1.616;2022-07-23T03:54:55;13.1;95
29173;DHT22;16223;47.966;-1.616;2022-07-23T03:55:55;13.1;95
29173;DHT22;16223;47.966;-1.616;2022-07-23T03:56:55;13.1;95
29173;DHT22;16223;47.966;-1.616;2022-07-23T03:57:56;13.1;95
29173;DHT22;16223;47.966;-1.616;2022-07-23T03:58:55;13.1;95
29173;DHT22;16223;47.966;-1.616;2022-07-23T03:59:55;13.1;95
29173;DHT22;16223;47.966;-1.616;2022-07-23T04:00:55;13.1;95
29173;DHT22;16223;47.966;-1.616;2022-07-23T04:01:55;13.1;95
29173;DHT22;16223;47.966;-1.616;2022-07-23T04:02:55;13.1;95
29173;DHT22;16223;47.966;-1.616;2022-07-23T04:03:55;13.1;95
29173;DHT22;16223;47.966;-1.616;2022-07-23T04:04:55;13.1;95
29173;DHT22;16223;47.966;-1.616;2022-07-23T04:05:55;13.1;95
29173;DHT22;16223;47.966;-1.616;2022-07-23T04:06:55;13.1;95
29173;DHT22;16223;47.966;-1.616;2022-07-23T04:07:55;13.1;95
29173;DHT22;16223;47.966;-1.616;2022-07-23T04:08:55;13.1;95
29173;DHT22;16223;47.966;-1.616;2022-07-23T04:09:55;13.1;95
29173;DHT22;16223;47.966;-1.616;2022-07-23T04:10:55;13.1;95
29173;DHT22;16223;47.966;-1.616;2022-07-23T04:11:55;13.1;95
29173;DHT22;16223;47.966;-1.616;2022-07-23T04:12:55;12.6;96
29173;DHT22;16223;47.966;-1.616;2022-07-23T04:13:55;12.6;96
29173;DHT22;16223;47.966;-1.616;2022-07-23T04:14:55;12.6;96
29173;DHT22;16223;47.966;-1.616;2022-07-23T04:15:55;12.6;96
29173;DHT22;16223;47.966;-1.616;2022-07-23T04:16:55;12.7;96
29173;DHT22;16223;47.966;-1.616;2022-07-23T04:17:55;12.7;96
29173;DHT22;16223;47.966;-1.616;2022-07-23T04:18:55;12.7;96
29173;DHT22;16223;47.966;-1.616;2022-07-23T04:19:55;12.7;96
29173;DHT22;16223;47.966;-1.616;2022-07-23T04:20:55;12.7;96
29173;DHT22;16223;47.966;-1.616;2022-07-23T04:21:54;12.7;96
29173;DHT22;16223;47.966;-1.616;2022-07-23T04:22:54;12.7;96
29173;DHT22;16223;47.966;-1.616;2022-07-23T04:23:55;12.7;96
29173;DHT22;16223;47.966;-1.616;2022-07-23T04:24:55;12.7;96
29173;DHT22;16223;47.966;-1.616;2022-07-23T04:25:55;12.7;96
29173;DHT22;16223;47.966;-1.616;2022-07-23T04:26:55;12.7;96
29173;DHT22;16223;47.966;-1.616;2022-07-23T04:27:55;12.7;96
29173;DHT22;16223;47.966;-1.616;2022-07-23T04:28:55;12.7;96
29173;DHT22;16223;47.966;-1.616;2022-07-23T04:29:55;12.7;96
29173;DHT22;16223;47.966;-1.616;2022-07-23T04:30:55;12.7;96
29173;DHT22;16223;47.966;-1.616;2022-07-23T04:31:55;12.7;96
29173;DHT22;16223;47.966;-1.616;2022-07-23T04:32:55;12.7;96
29173;DHT22;16223;47.966;-1.616;2022-07-23T04:33:55;12.7;96
29173;DHT22;16223;47.966;-1.616;2022-07-23T04:34:55;12.7;96
29173;DHT22;16223;47.966;-1.616;2022-07-23T04:35:55;12.7;96
29173;DHT22;16223;47.966;-1.616;2022-07-23T04:36:55;12.7;96
29173;DHT22;16223;47.966;-1.616;2022-07-23T04:37:55;12.7;96
29173;DHT22;16223;47.966;-1.616;2022-07-23T04:38:55;12.7;96
29173;DHT22;16223;47.966;-1.616;2022-07-23T04:39:55;12.7;96
29173;DHT22;16223;47.966;-1.616;2022-07-23T04:41:05;12.7;96
29173;DHT22;16223;47.966;-1.616;2022-07-23T04:41:55;12.7;96
29173;DHT22;16223;47.966;-1.616;2022-07-23T04:42:55;12.7;96
29173;DHT22;16223;47.966;-1.616;2022-07-23T04:43:55;12.7;96
29173;DHT22;16223;47.966;-1.616;2022-07-23T04:44:55;12.7;96
29173;DHT22;16223;47.966;-1.616;2022-07-23T04:45:55;12.7;96
29173;DHT22;16223;47.966;-1.616;2022-07-23T04:46:55;12.7;96
29173;DHT22;16223;47.966;-1.616;2022-07-23T04:47:55;12.7;96
29173;DHT22;16223;47.966;-1.616;2022-07-23T04:48:55;12.7;96
29173;DHT22;16223;47.966;-1.616;2022-07-23T04:49:55;12.7;96
29173;DHT22;16223;47.966;-1.616;2022-07-23T04:50:55;12.7;96
29173;DHT22;16223;47.966;-1.616;2022-07-23T04:51:55;12.7;96
29173;DHT22;16223;47.966;-1.616;2022-07-23T04:52:55;12.7;96
29173;DHT22;16223;47.966;-1.616;2022-07-23T04:53:55;12.7;96
29173;DHT22;16223;47.966;-1.616;2022-07-23T04:54:55;12.7;96
29173;DHT22;16223;47.966;-1.616;2022-07-23T04:55:55;12.7;96
29173;DHT22;16223;47.966;-1.616;2022-07-23T04:56:55;12.7;96
29173;DHT22;16223;47.966;-1.616;2022-07-23T04:57:55;12.7;96
29173;DHT22;16223;47.966;-1.616;2022-07-23T04:58:55;12.7;96
29173;DHT22;16223;47.966;-1.616;2022-07-23T04:59:55;12.7;96
29173;DHT22;16223;47.966;-1.616;2022-07-23T05:00:55;12.7;96
29173;DHT22;16223;47.966;-1.616;2022-07-23T05:01:55;12.7;96
29173;DHT22;16223;47.966;-1.616;2022-07-23T05:02:55;12.7;96
29173;DHT22;16223;47.966;-1.616;2022-07-23T05:03:55;12.7;96
29173;DHT22;16223;47.966;-1.616;2022-07-23T05:04:55;12.7;96
29173;DHT22;16223;47.966;-1.616;2022-07-23T05:05:55;12.7;96
29173;DHT22;16223;47.966;-1.616;2022-07-23T05:06:55;12.7;96
29173;DHT22;16223;47.966;-1.616;2022-07-23T05:07:55;12.7;96
29173;DHT22;16223;47.966;-1.616;2022-07-23T05:08:55;12.7;96
29173;DHT22;16223;47.966;-1.616;2022-07-23T05:09:55;12.7;96
29173;DHT22;16223;47.966;-1.616;2022-07-23T05:10:55;12.7;96
29173;DHT22;16223;47.966;-1.616;2022-07-23T05:11:55;13.0;97
29173;DHT22;16223;47.966;-1.616;2022-07-23T05:12:55;13.0;97
29173;DHT22;16223;47.966;-1.616;2022-07-23T05:13:55;13.1;97
29173;DHT22;16223;47.966;-1.616;2022-07-23T05:14:55;13.1;97
29173;DHT22;16223;47.966;-1.616;2022-07-23T05:15:55;13.1;97
29173;DHT22;16223;47.966;-1.616;2022-07-23T05:16:55;13.1;97
29173;DHT22;16223;47.966;-1.616;2022-07-23T05:17:55;13.1;97
29173;DHT22;16223;47.966;-1.616;2022-07-23T05:18:55;13.1;97
29173;DHT22;16223;47.966;-1.616;2022-07-23T05:19:55;13.1;97
29173;DHT22;16223;47.966;-1.616;2022-07-23T05:20:55;13.1;97
29173;DHT22;16223;47.966;-1.616;2022-07-23T05:21:55;13.6;97
29173;DHT22;16223;47.966;-1.616;2022-07-23T05:22:55;13.6;97
29173;DHT22;16223;47.966;-1.616;2022-07-23T05:23:55;13.6;97
29173;DHT22;16223;47.966;-1.616;2022-07-23T05:24:55;13.6;97
29173;DHT22;16223;47.966;-1.616;2022-07-23T05:25:55;13.6;97
29173;DHT22;16223;47.966;-1.616;2022-07-23T05:26:55;13.6;97
29173;DHT22;16223;47.966;-1.616;2022-07-23T05:27:55;13.6;97
29173;DHT22;16223;47.966;-1.616;2022-07-23T05:28:55;13.6;97
29173;DHT22;16223;47.966;-1.616;2022-07-23T05:29:55;13.6;97
29173;DHT22;16223;47.966;-1.616;2022-07-23T05:30:55;13.6;97
29173;DHT22;16223;47.966;-1.616;2022-07-23T05:31:55;13.6;97
29173;DHT22;16223;47.966;-1.616;2022-07-23T05:32:55;13.6;97
29173;DHT22;16223;47.966;-1.616;2022-07-23T05:33:55;13.6;97
29173;DHT22;16223;47.966;-1.616;2022-07-23T05:34:55;14.2;96
29173;DHT22;16223;47.966;-1.616;2022-07-23T05:35:59;14.2;96
29173;DHT22;16223;47.966;-1.616;2022-07-23T05:36:55;14.2;96
29173;DHT22;16223;47.966;-1.616;2022-07-23T05:37:55;14.2;96
29173;DHT22;16223;47.966;-1.616;2022-07-23T05:38:55;14.2;96
29173;DHT22;16223;47.966;-1.616;2022-07-23T05:39:55;14.2;96
29173;DHT22;16223;47.966;-1.616;2022-07-23T05:40:55;14.2;96
29173;DHT22;16223;47.966;-1.616;2022-07-23T05:41:55;14.2;96
29173;DHT22;16223;47.966;-1.616;2022-07-23T05:42:54;14.2;96
29173;DHT22;16223;47.966;-1.616;2022-07-23T05:43:55;14.2;96
29173;DHT22;16223;47.966;-1.616;2022-07-23T05:44:55;14.2;96
29173;DHT22;16223;47.966;-1.616;2022-07-23T05:45:55;14.2;96
29173;DHT22;16223;47.966;-1.616;2022-07-23T05:46:55;14.2;96
29173;DHT22;16223;47.966;-1.616;2022-07-23T05:47:55;14.2;96
29173;DHT22;16223;47.966;-1.616;2022-07-23T05:48:55;14.2;96
29173;DHT22;16223;47.966;-1.616;2022-07-23T05:49:55;14.2;96
29173;DHT22;16223;47.966;-1.616;2022-07-23T05:50:55;14.2;96
29173;DHT22;16223;47.966;-1.616;2022-07-23T05:51:55;14.2;96
29173;DHT22;16223;47.966;-1.616;2022-07-23T05:52:55;14.2;96
29173;DHT22;16223;47.966;-1.616;2022-07-23T05:53:55;14.2;96
29173;DHT22;16223;47.966;-1.616;2022-07-23T05:54:55;14.2;96
29173;DHT22;16223;47.966;-1.616;2022-07-23T05:55:55;14.2;96
29173;DHT22;16223;47.966;-1.616;2022-07-23T05:56:55;14.2;96
29173;DHT22;16223;47.966;-1.616;2022-07-23T05:57:55;14.2;96
29173;DHT22;16223;47.966;-1.616;2022-07-23T05:58:55;14.2;96
29173;DHT22;16223;47.966;-1.616;2022-07-23T05:59:55;14.2;96
29173;DHT22;16223;47.966;-1.616;2022-07-23T06:00:55;14.7;95
29173;DHT22;16223;47.966;-1.616;2022-07-23T06:01:55;14.7;95
29173;DHT22;16223;47.966;-1.616;2022-07-23T06:02:55;14.7;95
29173;DHT22;16223;47.966;-1.616;2022-07-23T06:03:55;14.7;95
29173;DHT22;16223;47.966;-1.616;2022-07-23T06:04:55;14.7;95
29173;DHT22;16223;47.966;-1.616;2022-07-23T06:05:55;14.7;95
29173;DHT22;16223;47.966;-1.616;2022-07-23T06:06:55;14.7;95
29173;DHT22;16223;47.966;-1.616;2022-07-23T06:07:55;14.7;95
29173;DHT22;16223;47.966;-1.616;2022-07-23T06:08:55;14.7;95
29173;DHT22;16223;47.966;-1.616;2022-07-23T06:09:55;15.1;94
29173;DHT22;16223;47.966;-1.616;2022-07-23T06:10:55;15.2;94
29173;DHT22;16223;47.966;-1.616;2022-07-23T06:11:57;15.2;94
29173;DHT22;16223;47.966;-1.616;2022-07-23T06:12:55;15.2;94
29173;DHT22;16223;47.966;-1.616;2022-07-23T06:13:55;15.2;94
29173;DHT22;16223;47.966;-1.616;2022-07-23T06:14:56;15.2;94
29173;DHT22;16223;47.966;-1.616;2022-07-23T06:15:58;15.2;94
29173;DHT22;16223;47.966;-1.616;2022-07-23T06:16:55;15.7;93
29173;DHT22;16223;47.966;-1.616;2022-07-23T06:17:55;15.7;93
29173;DHT22;16223;47.966;-1.616;2022-07-23T06:18:55;15.7;93
29173;DHT22;16223;47.966;-1.616;2022-07-23T06:19:55;15.7;93
29173;DHT22;16223;47.966;-1.616;2022-07-23T06:20:56;15.7;93
29173;DHT22;16223;47.966;-1.616;2022-07-23T06:21:56;16.2;92
29173;DHT22;16223;47.966;-1.616;2022-07-23T06:22:55;16.2;92
29173;DHT22;16223;47.966;-1.616;2022-07-23T06:23:55;16.2;92
29173;DHT22;16223;47.966;-1.616;2022-07-23T06:24:56;16.2;92
29173;DHT22;16223;47.966;-1.616;2022-07-23T06:25:55;16.2;92
29173;DHT22;16223;47.966;-1.616;2022-07-23T06:26:55;16.2;92
29173;DHT22;16223;47.966;-1.616;2022-07-23T06:27:55;16.2;92
29173;DHT22;16223;47.966;-1.616;2022-07-23T06:28:56;16.2;92
29173;DHT22;16223;47.966;-1.616;2022-07-23T06:29:55;16.2;92
29173;DHT22;16223;47.966;-1.616;2022-07-23T06:30:56;16.2;92
29173;DHT22;16223;47.966;-1.616;2022-07-23T06:31:55;16.2;92
29173;DHT22;16223;47.966;-1.616;2022-07-23T06:32:56;16.2;92
29173;DHT22;16223;47.966;-1.616;2022-07-23T06:33:55;16.2;92
29173;DHT22;16223;47.966;-1.616;2022-07-23T06:34:55;16.8;89
29173;DHT22;16223;47.966;-1.616;2022-07-23T06:35:55;16.8;89
29173;DHT22;16223;47.966;-1.616;2022-07-23T06:36:55;16.8;89
29173;DHT22;16223;47.966;-1.616;2022-07-23T06:37:55;16.8;89